Humidity-temperature Sensor

Selected Measurement Type: Air Temperature

 
Air Temperature [°C]     6 entries per hour
Showing data from 1/19/2023 (00:00:00 Z) to 1/12/2023 (00:01:00 Z)
Previous Next [ Day | 3-Days | 7-Days ]
First Last
Prev [ Day | 3-Days | 7-Days ] Next
First Last

Start Time:     :
End Time:     :     
Time (in GMT) :00 :50 :40 :30 :20 :10
Previous Next [ Day | 3-Days | 7-Days ]
First Last
Prev [ Day | 3-Days | 7-Days ] Next
First Last


123 => good data
MM => data is determined as missing
-- => data not received/configured
Back to Top Back to Top
1/19/2023 00:00 to 23:10 24.14 24.05 24.14 24.06 24.07 23.75
1/18/2023 23:00 to 22:10 23.75 23.77 23.97 24.04 24.06 23.96
1/18/2023 22:00 to 21:10 24.08 24.19 24.27 24.28 24.36 24.27
1/18/2023 21:00 to 20:10 24.12 24.07 24.08 24.36 24.10 24.01
1/18/2023 20:00 to 19:10 24.07 24.04 24.14 24.30 24.27 24.22
1/18/2023 19:00 to 18:10 24.21 24.23 24.06 24.16 24.39 24.80
1/18/2023 18:00 to 17:10 24.53 24.31 24.10 24.20 24.28 24.07
1/18/2023 17:00 to 16:10 24.10 24.02 24.04 23.96 23.72 23.65
1/18/2023 16:00 to 15:10 23.74 23.75 23.69 23.76 23.71 23.75
1/18/2023 15:00 to 14:10 23.75 23.74 23.79 23.76 23.73 23.73
1/18/2023 14:00 to 13:10 23.60 23.64 23.60 23.61 23.57 23.59
1/18/2023 13:00 to 12:10 23.42 23.36 23.45 23.36 23.32 23.43
1/18/2023 12:00 to 11:10 23.43 23.36 23.34 23.31 23.35 23.63
1/18/2023 11:00 to 10:10 23.50 23.65 23.57 23.82 23.70 23.87
1/18/2023 10:00 to 9:10 23.53 23.95 24.52 24.49 23.98 24.70
1/18/2023 09:00 to 8:10 24.70 24.50 24.95 25.28 25.41 25.51
1/18/2023 08:00 to 7:10 25.06 25.03 25.27 25.56 25.20 25.47
1/18/2023 07:00 to 6:10 25.64 25.72 25.32 24.90 24.88 24.87
1/18/2023 06:00 to 5:10 24.97 25.51 25.28 25.17 25.52 25.17
1/18/2023 05:00 to 4:10 25.64 25.78 25.71 26.21 26.13 26.04
1/18/2023 04:00 to 3:10 25.93 25.72 25.74 25.65 25.56 25.40
1/18/2023 03:00 to 2:10 25.27 25.25 25.31 25.10 24.92 25.25
1/18/2023 02:00 to 1:10 24.93 24.88 24.36 24.61 24.78 24.57
1/18/2023 01:00 to 0:10 25.01 24.91 24.79 24.71 24.53 24.40
1/18/2023 00:00 to 23:10 24.46 24.78 24.74 24.95 25.48 25.58
1/17/2023 23:00 to 22:10 25.54 24.61 25.16 25.07 25.54 25.59
1/17/2023 22:00 to 21:10 25.62 25.71 25.63 25.65 25.78 25.71
1/17/2023 21:00 to 20:10 25.70 25.68 25.78 25.65 25.65 25.62
1/17/2023 20:00 to 19:10 25.53 25.49 25.56 25.32 25.38 25.24
1/17/2023 19:00 to 18:10 25.55 25.62 25.44 25.52 25.61 25.47
1/17/2023 18:00 to 17:10 25.35 25.28 25.07 25.25 25.12 25.37
1/17/2023 17:00 to 16:10 25.51 25.36 25.21 25.36 25.20 25.21
1/17/2023 16:00 to 15:10 25.16 25.37 25.31 25.20 25.16 25.11
1/17/2023 15:00 to 14:10 25.21 25.15 25.20 25.14 25.14 25.08
1/17/2023 14:00 to 13:10 24.98 24.90 24.97 24.82 24.87 24.71
1/17/2023 13:00 to 12:10 24.47 24.81 24.61 24.87 24.68 25.07
1/17/2023 12:00 to 11:10 25.04 24.87 24.75 24.91 24.70 24.79
1/17/2023 11:00 to 10:10 24.48 24.50 24.74 24.83 25.02 25.55
1/17/2023 10:00 to 9:10 25.40 25.79 25.69 25.74 25.67 25.99
1/17/2023 09:00 to 8:10 26.00 26.07 26.18 26.10 26.05 25.82
1/17/2023 08:00 to 7:10 25.78 26.14 26.15 26.06 26.08 25.80
1/17/2023 07:00 to 6:10 25.76 26.15 26.12 26.05 26.07 26.10
1/17/2023 06:00 to 5:10 25.98 26.16 26.08 26.05 26.03 26.08
1/17/2023 05:00 to 4:10 25.78 25.87 25.97 25.88 25.76 25.87
1/17/2023 04:00 to 3:10 26.00 26.13 26.06 26.08 26.08 26.10
1/17/2023 03:00 to 2:10 26.18 26.01 26.18 26.32 26.18 26.10
1/17/2023 02:00 to 1:10 26.15 26.10 26.11 26.08 25.73 26.05
1/17/2023 01:00 to 0:10 25.98 25.96 25.92 25.99 26.00 26.23
1/17/2023 00:00 to 23:10 26.30 26.00 26.19 26.26 26.26 26.14
1/16/2023 23:00 to 22:10 26.10 25.98 26.00 26.01 26.38 25.99
1/16/2023 22:00 to 21:10 25.69 25.85 26.05 25.79 26.08 26.42
1/16/2023 21:00 to 20:10 26.07 26.44 26.38 26.41 26.41 26.49
1/16/2023 20:00 to 19:10 26.41 26.62 26.56 26.42 26.48 26.60
1/16/2023 19:00 to 18:10 26.30 26.43 26.38 26.39 26.42 26.27
1/16/2023 18:00 to 17:10 26.36 26.46 26.19 26.08 26.28 26.34
1/16/2023 17:00 to 16:10 26.44 26.34 26.57 26.31 26.48 26.27
1/16/2023 16:00 to 15:10 26.14 26.24 26.03 25.86 25.64 25.97
1/16/2023 15:00 to 14:10 26.33 26.22 26.32 26.13 26.08 26.07
1/16/2023 14:00 to 13:10 25.88 25.91 25.75 25.99 26.12 26.33
1/16/2023 13:00 to 12:10 26.20 26.21 26.04 26.03 25.97 26.04
1/16/2023 12:00 to 11:10 25.99 26.10 25.96 26.05 25.80 26.19
1/16/2023 11:00 to 10:10 26.00 26.05 25.98 26.01 25.90 26.04
1/16/2023 10:00 to 9:10 26.04 26.03 26.09 25.99 26.00 26.00
1/16/2023 09:00 to 8:10 25.94 25.86 26.06 26.01 25.99 26.08
1/16/2023 08:00 to 7:10 26.00 25.96 25.91 25.93 25.92 25.96
1/16/2023 07:00 to 6:10 26.08 25.81 26.00 25.94 25.88 25.96
1/16/2023 06:00 to 5:10 25.95 25.92 26.01 26.11 26.18 26.18
1/16/2023 05:00 to 4:10 26.11 26.04 26.10 26.11 25.95 25.97
1/16/2023 04:00 to 3:10 26.17 25.89 25.83 25.96 25.89 26.10
1/16/2023 03:00 to 2:10 26.11 26.23 25.99 26.09 25.97 26.21
1/16/2023 02:00 to 1:10 26.27 26.29 26.17 26.10 26.15 25.99
1/16/2023 01:00 to 0:10 26.12 26.06 26.03 25.87 25.96 25.94
1/16/2023 00:00 to 23:10 25.99 25.88 25.99 25.97 26.07 26.00
1/15/2023 23:00 to 22:10 26.11 26.24 26.25 26.15 26.21 26.09
1/15/2023 22:00 to 21:10 26.01 25.93 25.98 25.85 25.83 25.96
1/15/2023 21:00 to 20:10 26.03 25.98 25.79 25.85 25.98 26.00
1/15/2023 20:00 to 19:10 26.23 26.04 26.10 26.10 26.17 26.11
1/15/2023 19:00 to 18:10 26.20 26.25 26.21 26.17 26.18 26.13
1/15/2023 18:00 to 17:10 26.03 26.31 26.21 26.11 26.19 26.38
1/15/2023 17:00 to 16:10 26.28 26.30 26.24 26.07 26.19 26.11
1/15/2023 16:00 to 15:10 26.12 26.17 26.23 26.25 26.64 26.67
1/15/2023 15:00 to 14:10 26.60 26.45 26.51 26.51 26.41 26.35
1/15/2023 14:00 to 13:10 26.44 26.35 26.31 26.35 26.12 26.20
1/15/2023 13:00 to 12:10 26.21 26.11 26.10 26.27 26.15 26.02
1/15/2023 12:00 to 11:10 25.98 26.06 25.78 25.67 25.46 25.13
1/15/2023 11:00 to 10:10 24.94 24.72 24.53 24.53 24.42 24.34
1/15/2023 10:00 to 9:10 24.30 26.11 26.09 26.42 26.46 26.44
1/15/2023 09:00 to 8:10 26.52 26.46 26.42 26.34 26.59 26.48
1/15/2023 08:00 to 7:10 26.75 26.73 26.68 26.63 26.68 26.84
1/15/2023 07:00 to 6:10 26.69 26.82 26.65 26.84 26.90 26.94
1/15/2023 06:00 to 5:10 26.98 27.01 27.04 27.02 26.94 26.95
1/15/2023 05:00 to 4:10 26.99 27.00 26.93 26.95 26.88 27.04
1/15/2023 04:00 to 3:10 26.98 27.02 27.01 26.96 26.93 27.00
1/15/2023 03:00 to 2:10 27.13 26.98 27.18 26.92 26.88 27.00
1/15/2023 02:00 to 1:10 27.16 27.04 27.08 27.15 27.03 26.95
1/15/2023 01:00 to 0:10 27.02 26.95 27.16 27.07 26.96 26.95
1/15/2023 00:00 to 23:10 26.94 27.04 26.95 26.96 26.84 27.04
1/14/2023 23:00 to 22:10 26.98 26.84 26.69 26.66 26.63 26.58
1/14/2023 22:00 to 21:10 26.49 26.51 26.38 26.51 26.41 26.34
1/14/2023 21:00 to 20:10 26.26 26.21 26.36 26.25 26.36 26.37
1/14/2023 20:00 to 19:10 26.23 26.22 26.12 26.23 26.31 26.31
1/14/2023 19:00 to 18:10 26.35 26.31 26.25 26.08 26.06 26.01
1/14/2023 18:00 to 17:10 25.93 25.81 25.72 25.65 25.50 25.40
1/14/2023 17:00 to 16:10 25.33 25.21 25.14 24.93 25.01 25.10
1/14/2023 16:00 to 15:10 25.18 25.13 24.97 24.87 24.87 24.79
1/14/2023 15:00 to 14:10 24.76 25.00 25.03 25.12 25.25 25.23
1/14/2023 14:00 to 13:10 25.24 25.26 25.43 25.46 25.44 25.52
1/14/2023 13:00 to 12:10 25.26 25.41 25.28 25.40 25.27 25.21
1/14/2023 12:00 to 11:10 25.24 25.18 25.03 25.11 25.06 25.12
1/14/2023 11:00 to 10:10 25.03 25.14 25.22 25.10 25.09 25.19
1/14/2023 10:00 to 9:10 24.87 25.06 25.08 25.16 25.00 25.01
1/14/2023 09:00 to 8:10 24.96 25.02 24.85 24.88 24.91 25.08
1/14/2023 08:00 to 7:10 24.86 24.95 24.97 24.90 24.99 25.04
1/14/2023 07:00 to 6:10 24.90 24.91 24.77 24.76 24.72 24.82
1/14/2023 06:00 to 5:10 24.81 24.95 24.74 24.82 24.82 24.63
1/14/2023 05:00 to 4:10 24.49 24.53 24.50 24.54 24.38 24.35
1/14/2023 04:00 to 3:10 24.35 24.44 24.38 24.24 24.19 24.26
1/14/2023 03:00 to 2:10 24.39 24.37 24.34 24.40 24.41 24.31
1/14/2023 02:00 to 1:10 24.56 24.36 24.42 24.49 24.55 24.66
1/14/2023 01:00 to 0:10 24.67 24.71 24.85 24.76 24.79 24.97
1/14/2023 00:00 to 23:10 24.92 25.00 25.13 25.54 25.76 26.11
1/13/2023 23:00 to 22:10 26.01 26.11 26.08 26.04 26.18 26.22
1/13/2023 22:00 to 21:10 26.08 26.22 26.19 26.38 26.09 26.31
1/13/2023 21:00 to 20:10 26.22 26.24 26.26 26.36 26.37 26.39
1/13/2023 20:00 to 19:10 26.09 26.18 26.17 26.14 26.03 26.19
1/13/2023 19:00 to 18:10 26.03 26.09 26.08 25.92 26.16 26.03
1/13/2023 18:00 to 17:10 26.05 25.95 25.98 26.07 25.94 26.04
1/13/2023 17:00 to 16:10 25.76 25.77 25.75 25.88 25.72 25.74
1/13/2023 16:00 to 15:10 25.71 25.87 25.79 25.73 25.67 25.78
1/13/2023 15:00 to 14:10 25.55 25.56 25.58 25.69 25.52 25.68
1/13/2023 14:00 to 13:10 25.36 25.34 25.33 25.44 25.28 25.43
1/13/2023 13:00 to 12:10 25.42 25.61 26.06 25.81 25.78 25.66
1/13/2023 12:00 to 11:10 25.67 25.78 25.83 25.90 25.82 25.78
1/13/2023 11:00 to 10:10 25.63 25.74 25.69 25.80 25.76 25.82
1/13/2023 10:00 to 9:10 25.59 25.65 25.74 25.65 25.87 25.86
1/13/2023 09:00 to 8:10 25.89 25.81 25.85 25.73 25.72 25.76
1/13/2023 08:00 to 7:10 25.87 25.69 25.75 25.63 25.63 25.87
1/13/2023 07:00 to 6:10 25.75 25.71 25.79 25.63 25.91 25.89
1/13/2023 06:00 to 5:10 25.83 25.99 25.88 25.95 25.96 25.90
1/13/2023 05:00 to 4:10 26.10 26.09 26.01 25.87 26.04 25.89
1/13/2023 04:00 to 3:10 25.97 26.23 26.06 26.06 26.07 26.03
1/13/2023 03:00 to 2:10 26.12 26.00 26.06 26.31 26.16 26.08
1/13/2023 02:00 to 1:10 25.92 26.26 26.22 26.03 25.94 26.08
1/13/2023 01:00 to 0:10 26.01 26.09 25.92 25.72 25.81 25.54
1/13/2023 00:00 to 23:10 25.54 25.70 25.66 25.22 25.12 24.85
1/12/2023 23:00 to 22:10 24.75 24.76 25.03 25.28 25.41 24.72
1/12/2023 22:00 to 21:10 24.76 24.89 25.22 25.22 25.20 25.23
1/12/2023 21:00 to 20:10 25.11 24.91 24.61 24.51 24.36 24.23
1/12/2023 20:00 to 19:10 23.93 23.66 23.46 23.72 23.85 24.12
1/12/2023 19:00 to 18:10 24.15 24.52 24.52 24.75 24.52 24.67
1/12/2023 18:00 to 17:10 24.53 25.20 25.27 25.04 24.71 24.83
1/12/2023 17:00 to 16:10 25.06 25.15 24.92 25.17 25.23 25.14
1/12/2023 16:00 to 15:10 25.32 25.28 25.03 25.16 25.17 25.20
1/12/2023 15:00 to 14:10 25.19 25.37 25.38 25.40 25.24 25.29
1/12/2023 14:00 to 13:10 25.39 25.57 25.41 25.52 25.56 25.63
1/12/2023 13:00 to 12:10 25.65 25.77 25.59 25.65 25.68 25.46
1/12/2023 12:00 to 11:10 25.27 25.28 25.32 25.23 25.21 25.22
1/12/2023 11:00 to 10:10 25.02 25.01 24.91 24.85 24.92 24.92
1/12/2023 10:00 to 9:10 24.95 25.04 24.99 25.06 25.02 25.08
1/12/2023 09:00 to 8:10 24.87 24.97 24.77 24.78 24.92 24.90
1/12/2023 08:00 to 7:10 25.06 25.41 25.46 25.48 25.72 25.69
1/12/2023 07:00 to 6:10 25.74 25.65 25.85 25.78 25.89 25.64
1/12/2023 06:00 to 5:10 25.70 25.59 25.53 25.70 25.51 25.46
1/12/2023 05:00 to 4:10 25.47 25.54 25.46 25.37 25.42 25.41
1/12/2023 04:00 to 3:10 25.39 25.40 25.19 25.18 25.16 25.01
1/12/2023 03:00 to 2:10 24.98 25.12 25.11 24.98 24.88 24.93
1/12/2023 02:00 to 1:10 25.00 24.91 25.31 25.50 25.45 25.38
1/12/2023 01:00 to 0:10 25.37 25.41 25.38 25.27 25.28 25.30